createdAt,value
2023-02-16T00:00:58.015Z,48.77
2023-02-16T00:02:29.658Z,48.96
2023-02-16T00:04:01.560Z,48.69
2023-02-16T00:05:34.035Z,49.15
2023-02-16T00:07:05.594Z,49.26
2023-02-16T00:08:37.116Z,49.09
2023-02-16T00:10:09.618Z,48.87
2023-02-16T00:11:59.863Z,49.07
2023-02-16T00:13:52.925Z,49.03
2023-02-16T00:15:24.450Z,49.21
2023-02-16T00:16:57.027Z,49.26
2023-02-16T00:18:28.594Z,48.81
2023-02-16T00:20:00.145Z,48.83
2023-02-16T00:21:32.424Z,49.13
2023-02-16T00:23:03.902Z,49.21
2023-02-16T00:24:35.545Z,49.20
2023-02-16T00:26:11.338Z,49.68
2023-02-16T00:27:42.817Z,49.17
2023-02-16T00:29:15.843Z,49.31
2023-02-16T00:30:47.372Z,49.19
2023-02-16T00:32:19.188Z,49.58
2023-02-16T00:33:50.780Z,49.80
2023-02-16T00:35:22.242Z,49.42
2023-02-16T00:36:53.910Z,49.32
2023-02-16T00:38:25.454Z,49.42
2023-02-16T00:39:56.981Z,49.27
2023-02-16T00:41:47.038Z,49.71
2023-02-16T00:43:26.178Z,49.04
2023-02-16T00:44:57.879Z,48.86
2023-02-16T00:46:29.417Z,49.57
2023-02-16T00:48:00.883Z,49.41
2023-02-16T00:49:32.474Z,49.33
2023-02-16T00:51:13.737Z,49.21
2023-02-16T00:52:51.978Z,49.50
2023-02-16T00:54:23.462Z,49.87
2023-02-16T00:55:54.990Z,49.95
2023-02-16T00:57:26.496Z,49.57
2023-02-16T00:58:58.366Z,50.17
2023-02-16T01:00:42.452Z,50.03
2023-02-16T01:02:14.116Z,49.97
2023-02-16T01:03:45.607Z,49.85
2023-02-16T01:05:17.177Z,50.10
2023-02-16T01:07:07.550Z,49.99
2023-02-16T01:08:57.851Z,49.87
2023-02-16T01:10:48.129Z,49.74
2023-02-16T01:12:19.802Z,49.78
2023-02-16T01:13:51.399Z,49.80
2023-02-16T01:15:23.156Z,50.09
2023-02-16T01:16:54.655Z,49.89
2023-02-16T01:18:26.158Z,50.02
2023-02-16T01:19:57.644Z,50.00
2023-02-16T01:21:29.161Z,50.31
2023-02-16T01:23:01.141Z,50.17
2023-02-16T01:24:32.800Z,50.12
2023-02-16T01:26:04.764Z,50.42
2023-02-16T01:27:39.038Z,50.15
2023-02-16T01:29:17.142Z,49.72
2023-02-16T01:30:49.140Z,49.58
2023-02-16T01:32:20.789Z,49.80
2023-02-16T01:33:52.378Z,49.86
2023-02-16T01:35:24.731Z,49.57
2023-02-16T01:36:56.233Z,49.70
2023-02-16T01:38:28.114Z,49.71
2023-02-16T01:39:59.687Z,49.91
2023-02-16T01:41:31.163Z,49.93
2023-02-16T01:43:22.131Z,50.30
2023-02-16T01:44:56.781Z,50.07
2023-02-16T01:46:34.348Z,50.06
2023-02-16T01:48:07.102Z,50.24
2023-02-16T01:49:38.585Z,50.40
2023-02-16T01:51:17.376Z,50.13
2023-02-16T01:53:09.289Z,50.16
2023-02-16T01:54:40.734Z,50.20
2023-02-16T01:56:15.522Z,49.98
2023-02-16T01:57:48.034Z,49.96
2023-02-16T01:59:22.990Z,49.68
2023-02-16T02:00:57.568Z,49.68
2023-02-16T02:02:29.432Z,49.87
2023-02-16T02:04:19.546Z,50.04
2023-02-16T02:05:51.559Z,50.10
2023-02-16T02:07:27.243Z,50.11
2023-02-16T02:09:06.530Z,50.33
2023-02-16T02:10:58.403Z,50.60
2023-02-16T02:12:35.260Z,50.64
2023-02-16T02:14:07.868Z,50.73
2023-02-16T02:15:39.402Z,50.93
2023-02-16T02:17:15.084Z,50.73
2023-02-16T02:18:46.711Z,50.83
2023-02-16T02:20:55.662Z,50.95
2023-02-16T02:22:48.650Z,51.11
2023-02-16T02:24:35.481Z,51.24
2023-02-16T02:26:15.479Z,51.01
2023-02-16T02:27:48.405Z,51.37
2023-02-16T02:29:26.354Z,51.79
2023-02-16T02:31:06.537Z,51.39
2023-02-16T02:32:57.026Z,51.40
2023-02-16T02:34:35.941Z,51.43
2023-02-16T02:36:13.590Z,51.36
2023-02-16T02:38:04.130Z,51.33
2023-02-16T02:39:40.919Z,51.01
2023-02-16T02:41:15.227Z,50.79
2023-02-16T02:42:46.759Z,50.88
2023-02-16T02:44:20.030Z,51.00
2023-02-16T02:45:55.421Z,50.81
2023-02-16T02:47:45.778Z,51.22
2023-02-16T02:49:17.406Z,50.97
2023-02-16T02:51:15.546Z,51.21
2023-02-16T02:52:47.044Z,51.40
2023-02-16T02:54:44.440Z,51.39
2023-02-16T02:56:34.803Z,51.50
2023-02-16T02:58:24.945Z,51.51
2023-02-16T03:00:16.495Z,51.14
2023-02-16T03:01:49.655Z,51.59
2023-02-16T03:03:21.168Z,51.32
2023-02-16T03:04:52.935Z,51.39
2023-02-16T03:06:26.429Z,51.51
2023-02-16T03:08:14.316Z,51.55
2023-02-16T03:09:45.878Z,51.49
2023-02-16T03:11:41.645Z,51.62
2023-02-16T03:13:21.251Z,51.57
2023-02-16T03:14:56.895Z,51.48
2023-02-16T03:16:31.982Z,51.65
2023-02-16T03:18:21.821Z,51.49
2023-02-16T03:20:12.103Z,51.13
2023-02-16T03:22:01.961Z,50.90
2023-02-16T03:23:52.127Z,50.97
2023-02-16T03:25:42.574Z,50.62
2023-02-16T03:27:36.780Z,51.20
2023-02-16T03:29:22.715Z,51.14
2023-02-16T03:30:54.328Z,50.98
2023-02-16T03:32:25.932Z,50.72
2023-02-16T03:33:57.516Z,51.21
2023-02-16T03:35:29.108Z,51.08
2023-02-16T03:37:00.918Z,51.32
2023-02-16T03:38:32.402Z,51.47
2023-02-16T03:40:22.481Z,51.12
2023-02-16T03:41:54.843Z,51.35
2023-02-16T03:43:26.798Z,51.23
2023-02-16T03:44:58.310Z,51.52
2023-02-16T03:46:29.879Z,51.40
2023-02-16T03:48:01.502Z,51.33
2023-02-16T03:49:32.962Z,51.08
2023-02-16T03:51:04.753Z,51.12
2023-02-16T03:52:36.397Z,51.01
2023-02-16T03:54:08.069Z,50.81
2023-02-16T03:55:40.420Z,50.92
2023-02-16T03:57:11.985Z,51.16
2023-02-16T03:58:43.511Z,50.90
2023-02-16T04:00:15.126Z,51.37
2023-02-16T04:01:46.558Z,51.36
2023-02-16T04:03:18.185Z,51.58
2023-02-16T04:04:49.822Z,51.68
2023-02-16T04:06:21.295Z,52.29
2023-02-16T04:07:52.773Z,51.67
2023-02-16T04:09:24.333Z,51.98
2023-02-16T04:10:57.599Z,51.72
2023-02-16T04:12:38.438Z,52.29
2023-02-16T04:14:09.955Z,51.82
2023-02-16T04:15:41.687Z,52.13
2023-02-16T04:17:13.378Z,52.21
2023-02-16T04:18:45.142Z,52.01
2023-02-16T04:20:18.368Z,52.74
2023-02-16T04:21:50.378Z,52.59
2023-02-16T04:23:21.878Z,52.48
2023-02-16T04:24:53.490Z,52.64
2023-02-16T04:26:25.211Z,52.56
2023-02-16T04:27:56.731Z,52.21
2023-02-16T04:29:29.422Z,52.63
2023-02-16T04:31:01.515Z,52.25
2023-02-16T04:32:33.349Z,52.22
2023-02-16T04:34:04.984Z,52.57
2023-02-16T04:35:36.515Z,51.93
2023-02-16T04:37:08.616Z,51.84
2023-02-16T04:38:40.360Z,51.87
2023-02-16T04:40:14.967Z,52.05
2023-02-16T04:41:46.799Z,51.92
2023-02-16T04:43:18.298Z,51.85
2023-02-16T04:44:49.998Z,51.82
2023-02-16T04:46:22.153Z,52.09
2023-02-16T04:47:54.177Z,52.15
2023-02-16T04:49:25.894Z,52.04
2023-02-16T04:50:57.339Z,52.65
2023-02-16T04:52:28.923Z,51.75
2023-02-16T04:54:00.342Z,51.94
2023-02-16T04:55:31.862Z,51.82
2023-02-16T04:57:03.488Z,51.82
2023-02-16T04:58:34.986Z,51.87
2023-02-16T05:00:07.346Z,52.14
2023-02-16T05:01:39.046Z,52.52
2023-02-16T05:03:10.700Z,52.45
2023-02-16T05:04:42.434Z,52.63
2023-02-16T05:06:14.076Z,52.52
2023-02-16T05:07:45.578Z,52.93
2023-02-16T05:09:17.075Z,52.37
2023-02-16T05:11:11.239Z,52.72
2023-02-16T05:13:01.284Z,53.01
2023-02-16T05:14:42.018Z,52.71
2023-02-16T05:16:13.560Z,52.94
2023-02-16T05:17:45.122Z,52.43
2023-02-16T05:19:16.681Z,52.68
2023-02-16T05:21:06.986Z,52.64
2023-02-16T05:22:39.411Z,52.38
2023-02-16T05:24:11.334Z,52.82
2023-02-16T05:25:42.893Z,52.89
2023-02-16T05:27:17.556Z,52.67
2023-02-16T05:28:49.117Z,53.07
2023-02-16T05:30:20.942Z,53.30
2023-02-16T05:31:52.855Z,52.41
2023-02-16T05:33:24.372Z,52.98
2023-02-16T05:34:56.235Z,52.92
2023-02-16T05:36:27.808Z,52.49
2023-02-16T05:37:59.362Z,52.96
2023-02-16T05:39:30.949Z,52.74
2023-02-16T05:41:03.830Z,52.82
2023-02-16T05:42:35.601Z,53.12
2023-02-16T05:44:08.473Z,52.61
2023-02-16T05:45:40.030Z,53.12
2023-02-16T05:47:11.747Z,53.05
2023-02-16T05:48:43.260Z,52.36
2023-02-16T05:50:14.879Z,52.73
2023-02-16T05:51:46.353Z,52.86
2023-02-16T05:53:17.893Z,53.30
2023-02-16T05:54:49.428Z,53.15
2023-02-16T05:56:21.170Z,52.51
2023-02-16T05:57:52.695Z,53.05
2023-02-16T05:59:24.171Z,52.99
2023-02-16T06:00:55.737Z,52.79
2023-02-16T06:02:27.507Z,52.48
2023-02-16T06:03:59.121Z,52.83
2023-02-16T06:05:30.612Z,52.49
2023-02-16T06:07:02.274Z,52.67
2023-02-16T06:08:33.928Z,52.46
2023-02-16T06:10:05.822Z,52.47
2023-02-16T06:11:37.520Z,52.51
2023-02-16T06:13:09.160Z,52.42
2023-02-16T06:14:40.732Z,52.68
2023-02-16T06:16:12.347Z,52.75
2023-02-16T06:17:44.822Z,53.03
2023-02-16T06:19:16.673Z,52.72
2023-02-16T06:20:48.226Z,53.02
2023-02-16T06:22:19.979Z,53.36
2023-02-16T06:23:51.604Z,53.32
2023-02-16T06:25:23.254Z,53.10
2023-02-16T06:26:54.798Z,53.27
2023-02-16T06:28:26.299Z,53.10
2023-02-16T06:29:57.976Z,53.17
2023-02-16T06:31:29.750Z,53.55
2023-02-16T06:33:02.033Z,53.43
2023-02-16T06:34:33.595Z,53.17
2023-02-16T06:36:05.366Z,52.93
2023-02-16T06:37:36.832Z,53.47
2023-02-16T06:39:08.496Z,53.47
2023-02-16T06:40:40.007Z,53.01
2023-02-16T06:42:11.682Z,53.64
2023-02-16T06:43:43.716Z,53.33
2023-02-16T06:45:15.315Z,52.99
2023-02-16T06:46:47.160Z,53.10
2023-02-16T06:48:18.956Z,53.32
2023-02-16T06:49:50.433Z,53.29
2023-02-16T06:51:22.029Z,53.05
2023-02-16T06:52:53.641Z,53.24
2023-02-16T06:54:33.667Z,53.14
2023-02-16T06:57:43.090Z,53.57
2023-02-16T06:59:14.710Z,53.61
2023-02-16T07:00:49.413Z,53.25
2023-02-16T07:02:20.966Z,52.57
2023-02-16T07:03:53.450Z,52.73
2023-02-16T07:05:25.106Z,52.71
2023-02-16T07:06:56.702Z,52.76
2023-02-16T07:08:28.263Z,53.07
2023-02-16T07:09:59.845Z,53.19
2023-02-16T07:11:31.359Z,52.96
2023-02-16T07:13:02.868Z,52.92
2023-02-16T07:14:34.354Z,52.72
2023-02-16T07:16:06.181Z,53.07
2023-02-16T07:17:37.911Z,52.93
2023-02-16T07:19:10.733Z,52.59
2023-02-16T07:20:42.239Z,53.22
2023-02-16T07:22:13.774Z,52.78
2023-02-16T07:23:45.499Z,52.80
2023-02-16T07:25:17.199Z,53.03
2023-02-16T07:26:49.210Z,53.11
2023-02-16T07:28:21.015Z,52.70
2023-02-16T07:29:52.563Z,52.65
2023-02-16T07:31:26.627Z,53.00
2023-02-16T07:32:58.238Z,53.26
2023-02-16T07:34:30.125Z,52.58
2023-02-16T07:36:01.780Z,52.41
2023-02-16T07:37:33.253Z,52.67
2023-02-16T07:39:04.902Z,52.57
2023-02-16T07:40:36.499Z,52.35
2023-02-16T07:42:08.010Z,52.05
2023-02-16T07:43:39.691Z,52.54
2023-02-16T07:45:11.317Z,52.27
2023-02-16T07:46:43.004Z,52.63
2023-02-16T07:48:14.522Z,52.72
2023-02-16T07:49:46.224Z,52.35
2023-02-16T07:51:21.597Z,52.60
2023-02-16T07:52:53.682Z,52.40
2023-02-16T07:54:25.561Z,52.49
2023-02-16T07:55:57.203Z,52.41
2023-02-16T07:57:28.943Z,52.55
2023-02-16T07:59:01.022Z,52.70
2023-02-16T08:00:32.896Z,52.66
2023-02-16T08:02:04.455Z,52.67
2023-02-16T08:03:36.180Z,52.83
2023-02-16T08:05:07.912Z,52.75
2023-02-16T08:06:39.585Z,52.65
2023-02-16T08:08:11.190Z,52.60
2023-02-16T08:09:42.722Z,52.44
2023-02-16T08:11:18.056Z,52.27
2023-02-16T08:12:50.082Z,52.26
2023-02-16T08:14:21.552Z,52.33
2023-02-16T08:15:53.065Z,52.37
2023-02-16T08:17:24.653Z,52.27
2023-02-16T08:18:56.860Z,52.37
2023-02-16T08:20:48.179Z,52.25
2023-02-16T08:22:20.185Z,52.40
2023-02-16T08:23:55.284Z,52.32
2023-02-16T08:25:27.414Z,52.38
2023-02-16T08:26:59.981Z,52.25
2023-02-16T08:28:31.469Z,52.43
2023-02-16T08:30:04.141Z,52.30
2023-02-16T08:31:36.641Z,51.86
2023-02-16T08:33:08.400Z,51.98
2023-02-16T08:34:42.940Z,51.94
2023-02-16T08:36:21.354Z,51.91
2023-02-16T08:37:53.033Z,52.46
2023-02-16T08:39:26.155Z,52.51
2023-02-16T08:40:57.621Z,52.55
2023-02-16T08:42:29.260Z,52.25
2023-02-16T08:44:01.265Z,52.56
2023-02-16T08:45:33.177Z,52.47
2023-02-16T08:47:04.997Z,52.50
2023-02-16T08:48:36.962Z,52.42
2023-02-16T08:50:08.973Z,52.12
2023-02-16T08:51:41.618Z,51.98
2023-02-16T08:53:13.688Z,52.20
2023-02-16T08:54:45.280Z,51.66
2023-02-16T08:56:17.030Z,51.83
2023-02-16T08:57:48.636Z,52.14
2023-02-16T08:59:20.422Z,51.66
2023-02-16T09:00:52.103Z,52.43
2023-02-16T09:02:23.901Z,52.31
2023-02-16T09:03:55.896Z,52.32
2023-02-16T09:05:28.386Z,51.47
2023-02-16T09:07:00.663Z,51.42
2023-02-16T09:08:32.968Z,52.08
2023-02-16T09:10:04.826Z,51.74
2023-02-16T09:11:36.557Z,50.99
2023-02-16T09:13:14.356Z,51.03
2023-02-16T09:14:45.975Z,51.71
2023-02-16T09:16:19.122Z,51.58
2023-02-16T09:17:51.010Z,52.05
2023-02-16T09:19:22.801Z,52.13
2023-02-16T09:20:55.119Z,51.15
2023-02-16T09:22:27.559Z,51.09
2023-02-16T09:24:00.936Z,51.13
2023-02-16T09:25:36.137Z,50.69
2023-02-16T09:27:07.680Z,51.24
2023-02-16T09:28:39.589Z,51.34
2023-02-16T09:30:11.328Z,51.48
2023-02-16T09:31:44.580Z,51.37
2023-02-16T09:33:16.830Z,51.11
2023-02-16T09:34:50.310Z,50.87
2023-02-16T09:36:21.883Z,51.21
2023-02-16T09:37:54.644Z,50.88
2023-02-16T09:39:26.487Z,51.02
2023-02-16T09:40:58.123Z,50.36
2023-02-16T09:42:48.365Z,50.96
2023-02-16T09:44:26.395Z,50.90
2023-02-16T09:45:59.005Z,50.64
2023-02-16T09:47:31.805Z,50.24
2023-02-16T09:49:03.856Z,50.42
2023-02-16T09:50:52.981Z,50.85
2023-02-16T09:52:40.404Z,50.91
2023-02-16T09:54:14.981Z,50.03
2023-02-16T09:55:55.125Z,50.33
2023-02-16T09:57:36.105Z,49.99
2023-02-16T09:59:12.914Z,49.65
2023-02-16T10:00:47.648Z,49.93
2023-02-16T10:02:34.835Z,49.34
2023-02-16T10:04:25.105Z,49.74
2023-02-16T10:06:02.890Z,49.49
2023-02-16T10:07:43.207Z,48.99
2023-02-16T10:09:16.580Z,49.30
2023-02-16T10:10:50.202Z,49.73
2023-02-16T10:12:24.074Z,49.19
2023-02-16T10:13:57.594Z,49.16
2023-02-16T10:15:29.420Z,49.32
2023-02-16T10:17:03.677Z,48.95
2023-02-16T10:18:35.700Z,48.83
2023-02-16T10:20:10.445Z,49.20
2023-02-16T10:21:45.263Z,48.86
2023-02-16T10:23:34.194Z,49.24
2023-02-16T10:25:12.873Z,49.11
2023-02-16T10:26:46.429Z,48.91
2023-02-16T10:28:20.285Z,47.91
2023-02-16T10:29:53.452Z,48.27
2023-02-16T10:31:28.068Z,47.63
2023-02-16T10:33:05.277Z,47.71
2023-02-16T10:34:48.303Z,48.17
2023-02-16T10:36:23.114Z,47.99
2023-02-16T10:38:03.678Z,48.24
2023-02-16T10:39:53.819Z,47.94
2023-02-16T10:41:28.236Z,47.40
2023-02-16T10:43:07.377Z,47.58
2023-02-16T10:44:43.810Z,47.31
2023-02-16T10:46:16.981Z,47.20
2023-02-16T10:47:48.688Z,47.04
2023-02-16T10:49:21.151Z,46.77
2023-02-16T10:50:56.641Z,46.93
2023-02-16T10:52:29.327Z,46.79
2023-02-16T10:54:02.148Z,46.69
2023-02-16T10:55:33.708Z,46.49
2023-02-16T10:57:13.325Z,46.69
2023-02-16T10:58:44.876Z,46.26
2023-02-16T11:00:16.813Z,46.37
2023-02-16T11:01:54.934Z,46.04
2023-02-16T11:03:32.156Z,46.37
2023-02-16T11:05:06.444Z,46.27
2023-02-16T11:06:38.475Z,45.95
2023-02-16T11:08:12.889Z,45.39
2023-02-16T11:09:45.472Z,45.54
2023-02-16T11:11:17.135Z,45.69
2023-02-16T11:12:51.155Z,45.32
2023-02-16T11:14:23.995Z,45.61
2023-02-16T11:15:57.016Z,45.04
2023-02-16T11:17:28.937Z,45.16
2023-02-16T11:19:06.185Z,44.94
2023-02-16T11:20:46.815Z,45.04
2023-02-16T11:22:26.164Z,44.73
2023-02-16T11:23:58.483Z,44.68
2023-02-16T11:25:30.091Z,44.36
2023-02-16T11:27:08.362Z,44.30
2023-02-16T11:28:40.045Z,43.97
2023-02-16T11:30:22.363Z,44.15
2023-02-16T11:31:54.102Z,44.30
2023-02-16T11:33:27.101Z,43.66
2023-02-16T11:34:58.675Z,43.91
2023-02-16T11:36:57.189Z,43.75
2023-02-16T11:38:32.842Z,43.62
2023-02-16T11:40:09.442Z,43.73
2023-02-16T11:41:44.377Z,43.24
2023-02-16T11:43:17.102Z,43.52
2023-02-16T11:44:52.373Z,43.17
2023-02-16T11:46:24.172Z,43.10
2023-02-16T11:47:57.088Z,42.71
2023-02-16T11:49:36.139Z,42.75
2023-02-16T11:51:08.998Z,42.73
2023-02-16T11:52:40.527Z,42.60
2023-02-16T11:54:16.197Z,42.39
2023-02-16T11:55:48.236Z,42.24
2023-02-16T11:57:23.642Z,42.23
2023-02-16T11:59:13.424Z,42.11
2023-02-16T12:01:00.351Z,42.12
2023-02-16T12:02:41.255Z,41.92
2023-02-16T12:04:22.521Z,42.07
2023-02-16T12:05:54.882Z,41.83
2023-02-16T12:07:27.630Z,41.82
2023-02-16T12:09:11.606Z,41.54
2023-02-16T12:10:52.201Z,41.20
2023-02-16T12:12:46.792Z,41.14
2023-02-16T12:14:29.256Z,40.87
2023-02-16T12:16:01.284Z,40.65
2023-02-16T12:17:55.055Z,40.37
2023-02-16T12:19:29.872Z,40.14
2023-02-16T12:21:01.989Z,39.83
2023-02-16T12:22:40.421Z,39.61
2023-02-16T12:24:27.808Z,39.58
2023-02-16T12:26:08.666Z,39.41
2023-02-16T12:27:43.116Z,39.32
2023-02-16T12:29:23.556Z,39.07
2023-02-16T12:31:12.330Z,38.99
2023-02-16T12:33:10.873Z,38.76
2023-02-16T12:34:42.454Z,38.40
2023-02-16T12:36:20.324Z,38.54
2023-02-16T12:37:52.539Z,38.12
2023-02-16T12:39:31.994Z,37.89
2023-02-16T12:41:10.073Z,37.86
2023-02-16T12:42:51.278Z,37.75
2023-02-16T12:44:32.453Z,37.26
2023-02-16T12:46:07.513Z,37.39
2023-02-16T12:47:44.078Z,37.20
2023-02-16T12:49:16.876Z,37.26
2023-02-16T12:50:48.621Z,37.10
2023-02-16T12:52:26.032Z,37.16
2023-02-16T12:54:18.342Z,36.99
2023-02-16T12:55:52.120Z,36.85
2023-02-16T12:57:24.841Z,36.67
2023-02-16T12:59:03.576Z,36.50
2023-02-16T13:00:40.745Z,36.34
2023-02-16T13:02:15.274Z,36.49
2023-02-16T13:03:47.589Z,36.22
2023-02-16T13:05:23.089Z,36.01
2023-02-16T13:07:06.626Z,35.95
2023-02-16T13:08:47.446Z,35.55
2023-02-16T13:10:19.073Z,35.47
2023-02-16T13:12:19.736Z,35.20
2023-02-16T13:13:52.340Z,35.47
2023-02-16T13:15:31.201Z,35.46
2023-02-16T13:17:03.663Z,35.28
2023-02-16T13:18:41.229Z,35.29
2023-02-16T13:20:15.251Z,35.05
2023-02-16T13:21:51.222Z,34.76
2023-02-16T13:23:32.960Z,34.65
2023-02-16T13:25:34.086Z,34.57
2023-02-16T13:27:24.607Z,34.58
2023-02-16T13:29:31.772Z,34.43
2023-02-16T13:31:15.886Z,34.63
2023-02-16T13:32:48.811Z,34.34
2023-02-16T13:34:24.965Z,34.28
2023-02-16T13:36:03.752Z,34.32
2023-02-16T13:37:56.409Z,34.23
2023-02-16T13:39:56.199Z,34.09
2023-02-16T13:41:30.886Z,33.82
2023-02-16T13:43:02.971Z,33.84
2023-02-16T13:44:34.575Z,33.70
2023-02-16T13:46:38.538Z,33.45
2023-02-16T13:48:27.272Z,33.59
2023-02-16T13:50:02.883Z,33.30
2023-02-16T13:51:44.351Z,33.31
2023-02-16T13:53:17.719Z,33.45
2023-02-16T13:54:50.342Z,33.08
2023-02-16T13:56:22.684Z,33.22
2023-02-16T13:58:00.398Z,33.28
2023-02-16T13:59:34.697Z,33.08
2023-02-16T14:01:24.847Z,33.06
2023-02-16T14:03:03.770Z,32.76
2023-02-16T14:04:35.399Z,32.83
2023-02-16T14:06:25.751Z,32.97
2023-02-16T14:08:18.138Z,32.77
2023-02-16T14:09:50.243Z,32.60
2023-02-16T14:11:21.913Z,32.60
2023-02-16T14:12:53.982Z,32.46
2023-02-16T14:14:25.584Z,32.44
2023-02-16T14:15:58.000Z,32.31
2023-02-16T14:17:31.185Z,32.46
2023-02-16T14:19:17.056Z,32.31
2023-02-16T14:20:50.682Z,32.18
2023-02-16T14:22:31.299Z,32.18
2023-02-16T14:24:03.486Z,32.09
2023-02-16T14:25:35.834Z,31.95
2023-02-16T14:27:09.459Z,31.76
2023-02-16T14:29:03.701Z,31.83
2023-02-16T14:30:55.573Z,31.73
2023-02-16T14:32:28.716Z,31.64
2023-02-16T14:34:02.342Z,31.60
2023-02-16T14:35:37.825Z,31.52
2023-02-16T14:37:10.556Z,31.47
2023-02-16T14:38:42.501Z,31.67
2023-02-16T14:40:15.924Z,31.43
2023-02-16T14:41:47.678Z,31.52
2023-02-16T14:43:26.654Z,31.37
2023-02-16T14:45:03.763Z,31.32
2023-02-16T14:46:38.013Z,31.24
2023-02-16T14:48:18.724Z,31.29
2023-02-16T14:50:03.825Z,31.25
2023-02-16T14:51:38.120Z,31.23
2023-02-16T14:53:18.014Z,31.11
2023-02-16T14:55:07.890Z,31.27
2023-02-16T14:56:42.134Z,31.28
2023-02-16T14:58:20.358Z,31.11
2023-02-16T14:59:57.453Z,31.22
2023-02-16T15:01:29.238Z,31.02
2023-02-16T15:03:02.106Z,30.63
2023-02-16T15:04:33.828Z,30.84
2023-02-16T15:06:06.531Z,30.84
2023-02-16T15:07:39.145Z,30.83
2023-02-16T15:09:26.706Z,30.98
2023-02-16T15:10:58.237Z,30.87
2023-02-16T15:12:30.068Z,31.01
2023-02-16T15:14:03.658Z,31.18
2023-02-16T15:15:37.812Z,31.14
2023-02-16T15:17:10.250Z,30.86
2023-02-16T15:18:42.884Z,30.95
2023-02-16T15:20:30.615Z,30.99
2023-02-16T15:22:17.632Z,30.93
2023-02-16T15:23:53.306Z,30.94
2023-02-16T15:25:24.992Z,30.85
2023-02-16T15:26:57.102Z,30.82
2023-02-16T15:28:32.604Z,30.66
2023-02-16T15:30:09.634Z,30.61
2023-02-16T15:31:41.340Z,30.51
2023-02-16T15:33:24.898Z,30.63
2023-02-16T15:34:56.963Z,30.54
2023-02-16T15:36:46.733Z,30.64
2023-02-16T15:38:18.257Z,30.52
2023-02-16T15:40:08.665Z,30.70
2023-02-16T15:41:43.394Z,30.79
2023-02-16T15:43:33.339Z,30.73
2023-02-16T15:45:18.930Z,30.63
2023-02-16T15:46:50.675Z,30.79
2023-02-16T15:48:35.467Z,31.01
2023-02-16T15:50:12.214Z,31.14
2023-02-16T15:51:44.868Z,31.19
2023-02-16T15:53:16.655Z,30.94
2023-02-16T15:54:48.399Z,31.01
2023-02-16T15:56:29.690Z,31.00
2023-02-16T15:58:01.324Z,31.44
2023-02-16T15:59:38.841Z,31.17
2023-02-16T16:01:10.995Z,31.52
2023-02-16T16:02:44.038Z,31.16
2023-02-16T16:04:17.712Z,31.17
2023-02-16T16:06:03.402Z,31.46
2023-02-16T16:07:36.472Z,31.74
2023-02-16T16:09:08.727Z,31.42
2023-02-16T16:10:42.155Z,31.39
2023-02-16T16:12:16.448Z,31.79
2023-02-16T16:13:48.775Z,31.82
2023-02-16T16:15:21.399Z,31.91
2023-02-16T16:16:53.105Z,31.70
2023-02-16T16:18:39.772Z,31.95
2023-02-16T16:20:31.083Z,31.75
2023-02-16T16:22:04.650Z,31.85
2023-02-16T16:23:36.938Z,31.72
2023-02-16T16:25:27.376Z,32.21
2023-02-16T16:26:59.281Z,32.09
2023-02-16T16:28:31.800Z,32.15
2023-02-16T16:30:15.581Z,32.14
2023-02-16T16:31:47.609Z,31.82
2023-02-16T16:33:19.251Z,31.84
2023-02-16T16:34:51.890Z,31.96
2023-02-16T16:36:33.428Z,32.16
2023-02-16T16:38:05.611Z,32.23
2023-02-16T16:39:37.976Z,31.77
2023-02-16T16:41:25.249Z,32.56
2023-02-16T16:43:17.368Z,32.38
2023-02-16T16:44:54.832Z,32.30
2023-02-16T16:46:27.031Z,32.49
2023-02-16T16:47:58.813Z,31.89
2023-02-16T16:49:30.372Z,31.99
2023-02-16T16:51:27.716Z,31.81
2023-02-16T16:52:59.424Z,31.76
2023-02-16T16:54:35.688Z,32.24
2023-02-16T16:56:11.408Z,32.14
2023-02-16T16:57:43.002Z,32.13
2023-02-16T16:59:14.583Z,32.71
2023-02-16T17:00:46.174Z,32.39
2023-02-16T17:02:18.398Z,32.56
2023-02-16T17:03:50.124Z,32.61
2023-02-16T17:05:21.939Z,32.73
2023-02-16T17:06:54.129Z,32.53
2023-02-16T17:08:25.659Z,32.78
2023-02-16T17:09:57.798Z,32.26
2023-02-16T17:11:38.015Z,32.69
2023-02-16T17:13:13.489Z,32.62
2023-02-16T17:14:45.007Z,32.80
2023-02-16T17:16:17.734Z,32.93
2023-02-16T17:17:49.419Z,33.01
2023-02-16T17:19:21.533Z,32.58
2023-02-16T17:20:53.274Z,32.91
2023-02-16T17:22:25.053Z,32.63
2023-02-16T17:23:56.672Z,32.64
2023-02-16T17:25:28.542Z,32.42
2023-02-16T17:27:00.698Z,33.08
2023-02-16T17:28:37.035Z,33.41
2023-02-16T17:30:09.025Z,33.44
2023-02-16T17:31:40.723Z,32.97
2023-02-16T17:33:12.374Z,32.96
2023-02-16T17:34:44.963Z,32.84
2023-02-16T17:36:17.055Z,33.47
2023-02-16T17:37:48.805Z,32.87
2023-02-16T17:39:20.399Z,32.80
2023-02-16T17:40:52.510Z,33.13
2023-02-16T17:42:24.091Z,33.01
2023-02-16T17:43:55.934Z,32.57
2023-02-16T17:45:27.438Z,32.96
2023-02-16T17:46:58.938Z,33.40
2023-02-16T17:48:30.757Z,33.07
2023-02-16T17:50:02.337Z,32.80
2023-02-16T17:51:36.501Z,33.33
2023-02-16T17:53:15.212Z,32.85
2023-02-16T17:54:46.718Z,33.02
2023-02-16T17:56:19.452Z,32.82
2023-02-16T17:57:51.954Z,33.12
2023-02-16T17:59:23.757Z,33.24
2023-02-16T18:00:55.424Z,33.78
2023-02-16T18:02:27.197Z,33.02
2023-02-16T18:03:59.714Z,33.88
2023-02-16T18:05:31.220Z,33.66
2023-02-16T18:07:02.888Z,33.53
2023-02-16T18:08:34.419Z,33.49
2023-02-16T18:10:06.265Z,33.52
2023-02-16T18:11:37.833Z,33.70
2023-02-16T18:13:11.601Z,33.73
2023-02-16T18:14:43.820Z,34.14
2023-02-16T18:16:16.143Z,33.78
2023-02-16T18:17:47.714Z,33.87
2023-02-16T18:19:19.563Z,34.54
2023-02-16T18:20:51.041Z,34.27
2023-02-16T18:22:22.564Z,34.20
2023-02-16T18:23:54.188Z,34.71
2023-02-16T18:25:25.883Z,34.23
2023-02-16T18:26:57.701Z,34.38
2023-02-16T18:28:30.850Z,34.60
2023-02-16T18:30:02.553Z,34.43
2023-02-16T18:31:34.168Z,34.33
2023-02-16T18:33:05.728Z,34.37
2023-02-16T18:34:37.658Z,34.47
2023-02-16T18:36:10.081Z,34.65
2023-02-16T18:37:41.700Z,34.37
2023-02-16T18:39:13.376Z,34.46
2023-02-16T18:40:44.972Z,35.05
2023-02-16T18:42:16.666Z,34.59
2023-02-16T18:43:48.173Z,34.47
2023-02-16T18:45:19.805Z,35.12
2023-02-16T18:46:51.952Z,35.04
2023-02-16T18:48:23.606Z,34.64
2023-02-16T18:49:56.476Z,34.76
2023-02-16T18:51:29.539Z,34.93
2023-02-16T18:53:01.156Z,34.79
2023-02-16T18:54:33.113Z,35.48
2023-02-16T18:56:07.628Z,34.76
2023-02-16T18:57:39.302Z,34.96
2023-02-16T18:59:11.694Z,35.14
2023-02-16T19:00:43.351Z,34.90
2023-02-16T19:02:14.874Z,34.99
2023-02-16T19:03:46.459Z,35.11
2023-02-16T19:05:18.411Z,35.05
2023-02-16T19:06:50.660Z,35.00
2023-02-16T19:08:22.371Z,35.05
2023-02-16T19:09:53.935Z,35.17
2023-02-16T19:11:25.693Z,35.00
2023-02-16T19:12:57.419Z,35.23
2023-02-16T19:14:29.066Z,35.34
2023-02-16T19:16:00.819Z,35.23
2023-02-16T19:17:32.395Z,35.43
2023-02-16T19:19:04.269Z,34.92
2023-02-16T19:20:35.966Z,35.40
2023-02-16T19:22:07.466Z,34.90
2023-02-16T19:23:39.219Z,35.12
2023-02-16T19:25:10.920Z,35.25
2023-02-16T19:26:43.097Z,35.11
2023-02-16T19:28:14.735Z,35.21
2023-02-16T19:29:49.335Z,34.98
2023-02-16T19:31:25.064Z,35.31
2023-02-16T19:32:56.723Z,35.56
2023-02-16T19:34:29.032Z,35.30
2023-02-16T19:36:04.520Z,35.13
2023-02-16T19:37:36.405Z,35.57
2023-02-16T19:39:08.053Z,35.52
2023-02-16T19:40:39.614Z,35.44
2023-02-16T19:42:11.195Z,35.46
2023-02-16T19:43:43.719Z,35.77
2023-02-16T19:45:15.399Z,35.45
2023-02-16T19:46:47.123Z,35.43
2023-02-16T19:48:18.923Z,35.41
2023-02-16T19:49:50.590Z,35.57
2023-02-16T19:51:22.224Z,35.52
2023-02-16T19:52:54.126Z,35.57
2023-02-16T19:54:26.529Z,35.70
2023-02-16T19:55:58.056Z,35.71
2023-02-16T19:57:29.862Z,35.79
2023-02-16T19:59:01.669Z,35.66
2023-02-16T20:00:33.286Z,35.58
2023-02-16T20:02:04.837Z,35.71
2023-02-16T20:03:36.519Z,35.79
2023-02-16T20:05:09.805Z,35.97
2023-02-16T20:06:42.042Z,35.44
2023-02-16T20:08:13.617Z,35.87
2023-02-16T20:09:45.269Z,35.96
2023-02-16T20:11:17.715Z,36.08
2023-02-16T20:12:49.203Z,35.85
2023-02-16T20:14:21.080Z,36.15
2023-02-16T20:15:53.033Z,35.96
2023-02-16T20:17:24.987Z,36.21
2023-02-16T20:18:57.105Z,35.98
2023-02-16T20:20:28.733Z,36.18
2023-02-16T20:22:00.283Z,36.18
2023-02-16T20:23:31.837Z,35.96
2023-02-16T20:25:03.692Z,36.08
2023-02-16T20:26:36.303Z,36.16